Time;durP1;ratioP1;P1;durP2;ratioP2;P2;SDS_P1;SDS_P2;PMS_P1;PMS_P2;Temp;Humidity;BMP_temperature;BMP_pressure;BME280_temperature;BME280_humidity;BME280_pressure;Samples;Min_cycle;Max_cycle;Signal;HPM_P1;HPM_P2
2022/10/16 00:00:39;;;;;;;0.20;0.20;;;12.50;99.90;;;;;;5031038;28;20663;-85
2022/10/16 00:03:06;;;;;;;0.20;0.20;;;12.60;99.90;;;;;;5025468;28;20275;-85
2022/10/16 00:05:32;;;;;;;0.20;0.20;;;12.50;99.90;;;;;;5024905;28;20533;-85
2022/10/16 00:07:57;;;;;;;0.20;0.20;;;12.50;99.90;;;;;;5028336;28;20591;-85
2022/10/16 00:10:23;;;;;;;0.20;0.20;;;12.50;99.90;;;;;;5030763;28;20187;-84
2022/10/16 00:12:49;;;;;;;0.20;0.20;;;12.50;99.90;;;;;;5008779;28;20188;-85
2022/10/16 00:15:15;;;;;;;0.20;0.20;;;12.50;99.90;;;;;;5027772;28;20180;-84
2022/10/16 00:17:40;;;;;;;0.13;0.13;;;12.50;99.90;;;;;;5008382;28;20758;-84
2022/10/16 00:20:06;;;;;;;0.20;0.20;;;12.40;99.90;;;;;;5031975;28;20453;-85
2022/10/16 00:22:33;;;;;;;0.20;0.20;;;12.40;99.90;;;;;;5020906;28;20220;-85
2022/10/16 00:24:58;;;;;;;0.10;0.10;;;12.50;99.90;;;;;;5031358;28;20539;-85
2022/10/16 00:27:24;;;;;;;0.20;0.20;;;12.40;99.90;;;;;;5024713;28;21035;-84
2022/10/16 00:29:51;;;;;;;0.20;0.20;;;12.40;99.90;;;;;;5039170;28;20659;-85
2022/10/16 00:32:17;;;;;;;0.20;0.20;;;12.40;99.90;;;;;;5001651;28;20226;-88
2022/10/16 00:34:43;;;;;;;0.20;0.20;;;12.40;99.90;;;;;;5028882;28;20449;-84
2022/10/16 00:37:08;;;;;;;0.20;0.20;;;12.30;99.90;;;;;;5028896;28;20445;-85
2022/10/16 00:39:34;;;;;;;0.20;0.20;;;12.30;99.90;;;;;;5011991;28;20439;-84
2022/10/16 00:42:00;;;;;;;0.20;0.20;;;12.30;99.90;;;;;;5025686;28;20228;-85
2022/10/16 00:45:00;;;;;;;0.20;0.20;;;12.30;99.90;;;;;;5030397;28;20199;-84
2022/10/16 00:47:30;;;;;;;0.20;0.20;;;12.30;99.90;;;;;;4952208;28;20214;-83
2022/10/16 00:50:06;;;;;;;0.20;0.20;;;12.30;99.90;;;;;;5001365;28;20541;-83
2022/10/16 00:52:32;;;;;;;0.20;0.20;;;12.20;99.90;;;;;;4993537;28;20443;-85
2022/10/16 00:54:58;;;;;;;0.20;0.20;;;12.30;99.90;;;;;;4991613;28;20997;-86
2022/10/16 00:57:24;;;;;;;0.20;0.20;;;12.30;99.90;;;;;;4987918;28;20199;-85
2022/10/16 00:59:50;;;;;;;0.20;0.20;;;12.30;99.90;;;;;;4989943;28;21092;-86
2022/10/16 01:02:17;;;;;;;0.20;0.20;;;12.30;99.90;;;;;;5005155;28;20536;-85
2022/10/16 01:04:53;;;;;;;0.20;0.20;;;12.20;99.90;;;;;;4989453;28;20535;-85
2022/10/16 01:07:39;;;;;;;0.20;0.20;;;12.20;99.90;;;;;;5008968;28;20442;-85
2022/10/16 01:10:26;;;;;;;0.20;0.20;;;12.20;99.90;;;;;;5004446;28;20546;-85
2022/10/16 01:13:09;;;;;;;0.20;0.20;;;12.20;99.90;;;;;;5001734;28;20445;-85
2022/10/16 01:15:59;;;;;;;0.20;0.20;;;12.20;99.90;;;;;;5002016;28;20462;-85
2022/10/16 01:18:32;;;;;;;0.20;0.20;;;12.20;99.90;;;;;;4998111;28;20463;-85
2022/10/16 01:21:04;;;;;;;0.20;0.20;;;12.20;99.90;;;;;;5001397;28;20483;-84
2022/10/16 01:24:02;;;;;;;0.10;0.10;;;12.20;99.90;;;;;;4991975;28;20479;-85
2022/10/16 01:26:40;;;;;;;0.20;0.20;;;12.20;99.90;;;;;;4985881;28;20448;-86
2022/10/16 01:29:13;;;;;;;0.20;0.20;;;12.10;99.90;;;;;;4990025;28;20526;-85
2022/10/16 01:31:43;;;;;;;0.20;0.20;;;12.10;99.90;;;;;;5007761;28;20486;-84
2022/10/16 01:34:16;;;;;;;0.20;0.20;;;12.10;99.90;;;;;;5004801;28;21042;-83
2022/10/16 01:36:49;;;;;;;0.20;0.20;;;12.10;99.90;;;;;;5009289;28;20965;-84
2022/10/16 01:39:18;;;;;;;0.20;0.20;;;12.10;99.90;;;;;;4989448;28;20546;-84
2022/10/16 01:41:49;;;;;;;0.20;0.20;;;12.10;99.90;;;;;;4986537;28;20865;-85
2022/10/16 01:44:22;;;;;;;0.20;0.20;;;12.10;99.90;;;;;;5006668;28;20982;-85
2022/10/16 01:46:50;;;;;;;0.20;0.20;;;12.10;99.90;;;;;;5022273;28;20823;-85
2022/10/16 01:49:18;;;;;;;0.20;0.20;;;12.10;99.90;;;;;;5023740;28;20454;-84
2022/10/16 01:51:47;;;;;;;0.10;0.10;;;12.10;99.90;;;;;;5023244;28;20455;-86
2022/10/16 01:54:15;;;;;;;0.20;0.20;;;12.10;99.90;;;;;;5022970;28;20969;-84
2022/10/16 01:56:42;;;;;;;0.20;0.20;;;12.10;99.90;;;;;;5015623;28;20458;-85
2022/10/16 01:59:15;;;;;;;0.20;0.20;;;12.10;99.90;;;;;;5002736;28;21071;-85
2022/10/16 02:01:45;;;;;;;0.20;0.20;;;12.10;99.90;;;;;;5005588;28;20490;-84
2022/10/16 02:04:24;;;;;;;0.10;0.10;;;12.10;99.90;;;;;;5010886;28;20423;-87
2022/10/16 02:06:49;;;;;;;0.10;0.10;;;12.10;99.90;;;;;;5015756;28;20524;-84
2022/10/16 02:09:16;;;;;;;0.17;0.17;;;12.10;99.90;;;;;;5006937;28;20470;-84
2022/10/16 02:11:43;;;;;;;0.20;0.20;;;12.10;99.90;;;;;;5024877;28;20187;-84
2022/10/16 02:14:08;;;;;;;0.10;0.10;;;12.10;99.90;;;;;;5026974;28;20438;-84
2022/10/16 02:16:41;;;;;;;0.10;0.10;;;12.10;99.90;;;;;;5023184;28;20902;-84
2022/10/16 02:19:07;;;;;;;0.20;0.20;;;12.10;99.90;;;;;;5025980;28;20191;-84
2022/10/16 02:21:51;;;;;;;0.17;0.17;;;12.10;99.90;;;;;;5008269;28;21353;-84
2022/10/16 02:24:25;;;;;;;0.20;0.20;;;12.20;99.90;;;;;;5024797;28;20464;-85
2022/10/16 02:27:09;;;;;;;0.20;0.20;;;12.10;99.90;;;;;;5004556;28;20537;-84
2022/10/16 02:29:40;;;;;;;0.20;0.20;;;12.10;99.90;;;;;;5026771;28;20437;-84
2022/10/16 02:32:10;;;;;;;0.20;0.20;;;12.10;99.90;;;;;;5023616;28;20961;-85
2022/10/16 02:34:37;;;;;;;0.20;0.20;;;12.10;99.90;;;;;;5011010;28;20541;-85
2022/10/16 02:37:06;;;;;;;0.20;0.20;;;12.10;99.90;;;;;;5018936;28;21889;-85
2022/10/16 02:39:33;;;;;;;0.10;0.10;;;12.10;99.90;;;;;;5015447;28;20449;-84
2022/10/16 02:41:59;;;;;;;0.20;0.20;;;12.10;99.90;;;;;;5009337;28;20489;-85
2022/10/16 02:44:24;;;;;;;0.20;0.20;;;12.10;99.90;;;;;;5024571;28;20495;-85
2022/10/16 02:46:50;;;;;;;0.20;0.20;;;12.10;99.90;;;;;;5024551;28;20777;-84
2022/10/16 02:49:15;;;;;;;0.20;0.20;;;12.10;99.90;;;;;;5029983;28;20718;-85
2022/10/16 02:51:41;;;;;;;0.20;0.20;;;12.10;99.90;;;;;;5028670;28;20192;-84
2022/10/16 02:54:06;;;;;;;0.20;0.20;;;12.10;99.90;;;;;;5024417;28;20191;-84
2022/10/16 02:56:32;;;;;;;0.10;0.10;;;12.00;99.90;;;;;;5000260;28;21275;-83
2022/10/16 02:58:58;;;;;;;0.20;0.20;;;12.10;99.90;;;;;;5010084;28;20240;-84
2022/10/16 03:01:24;;;;;;;0.20;0.20;;;12.00;99.90;;;;;;5009826;28;20465;-84
2022/10/16 03:03:49;;;;;;;0.20;0.20;;;12.00;99.90;;;;;;5004476;28;20195;-85
2022/10/16 03:06:15;;;;;;;0.20;0.20;;;12.00;99.90;;;;;;5027357;28;20179;-85
2022/10/16 03:08:40;;;;;;;0.20;0.20;;;12.00;99.90;;;;;;5022933;28;20684;-84
2022/10/16 03:11:06;;;;;;;0.20;0.20;;;11.90;99.90;;;;;;5022042;28;20187;-85
2022/10/16 03:13:31;;;;;;;0.20;0.20;;;11.90;99.90;;;;;;5023972;28;20191;-84
2022/10/16 03:15:57;;;;;;;0.20;0.20;;;11.90;99.90;;;;;;5026880;28;20190;-84
2022/10/16 03:18:22;;;;;;;0.20;0.20;;;11.90;99.90;;;;;;5027683;28;20206;-85
2022/10/16 03:20:48;;;;;;;0.20;0.20;;;11.90;99.90;;;;;;5028973;28;20222;-84
2022/10/16 03:23:13;;;;;;;0.20;0.20;;;11.90;99.90;;;;;;5021085;28;20187;-84
2022/10/16 03:25:39;;;;;;;0.20;0.20;;;11.90;99.90;;;;;;5025024;28;20280;-85
2022/10/16 03:28:05;;;;;;;0.20;0.20;;;11.80;99.90;;;;;;5024552;28;20199;-85
2022/10/16 03:30:31;;;;;;;0.20;0.20;;;11.80;99.90;;;;;;5024666;28;20633;-85
2022/10/16 03:32:56;;;;;;;0.20;0.20;;;11.80;99.90;;;;;;5029015;28;20521;-85
2022/10/16 03:35:23;;;;;;;0.20;0.20;;;11.80;99.90;;;;;;5024255;28;20210;-84
2022/10/16 03:37:49;;;;;;;0.20;0.20;;;11.70;99.90;;;;;;5026492;28;20203;-85
2022/10/16 03:40:15;;;;;;;0.20;0.20;;;11.70;99.90;;;;;;5027528;28;20443;-85
2022/10/16 03:42:43;;;;;;;0.20;0.20;;;11.70;99.90;;;;;;5019160;28;20494;-84
2022/10/16 03:45:09;;;;;;;0.20;0.20;;;11.70;99.90;;;;;;5025179;28;20469;-84
2022/10/16 03:47:34;;;;;;;0.20;0.20;;;11.70;99.90;;;;;;5023840;28;20449;-86
2022/10/16 03:50:00;;;;;;;0.20;0.20;;;11.70;99.90;;;;;;5025658;28;20434;-85
2022/10/16 03:52:26;;;;;;;0.20;0.20;;;11.70;99.90;;;;;;5024522;28;20663;-84
2022/10/16 03:54:51;;;;;;;0.20;0.20;;;11.70;99.90;;;;;;5005728;28;20450;-86
2022/10/16 03:57:17;;;;;;;0.20;0.20;;;11.70;99.90;;;;;;5021897;28;20202;-85
2022/10/16 03:59:43;;;;;;;0.20;0.20;;;11.60;99.90;;;;;;5020347;28;20192;-85
2022/10/16 04:02:09;;;;;;;0.10;0.10;;;11.60;99.90;;;;;;5024606;28;21239;-86
2022/10/16 04:04:34;;;;;;;0.20;0.20;;;11.60;99.90;;;;;;5026438;28;20199;-84
2022/10/16 04:07:00;;;;;;;0.20;0.20;;;11.60;99.90;;;;;;5026815;28;20204;-85
2022/10/16 04:09:25;;;;;;;0.20;0.20;;;11.60;99.90;;;;;;5025558;28;20192;-84
2022/10/16 04:11:51;;;;;;;0.20;0.20;;;11.60;99.90;;;;;;5024979;28;20192;-86
2022/10/16 04:14:16;;;;;;;0.20;0.20;;;11.60;99.90;;;;;;5007845;28;20184;-84
2022/10/16 04:16:42;;;;;;;0.20;0.20;;;11.60;99.90;;;;;;5013880;28;20195;-83
2022/10/16 04:19:09;;;;;;;0.20;0.20;;;11.60;99.90;;;;;;5017531;28;20195;-84
2022/10/16 04:21:34;;;;;;;0.20;0.20;;;11.60;99.90;;;;;;5028319;28;20219;-84
2022/10/16 04:24:00;;;;;;;0.20;0.20;;;11.60;99.90;;;;;;5012510;28;20456;-85
2022/10/16 04:26:25;;;;;;;0.20;0.20;;;11.50;99.90;;;;;;5024729;28;20199;-85
2022/10/16 04:28:51;;;;;;;0.20;0.20;;;11.50;99.90;;;;;;5025939;28;20237;-84
2022/10/16 04:31:16;;;;;;;0.20;0.20;;;11.50;99.90;;;;;;5027542;28;20291;-85
2022/10/16 04:33:43;;;;;;;0.20;0.20;;;11.50;99.90;;;;;;5034402;28;20187;-84
2022/10/16 04:36:08;;;;;;;0.20;0.20;;;11.50;99.90;;;;;;5026422;28;20196;-86
2022/10/16 04:38:34;;;;;;;0.20;0.20;;;11.50;99.90;;;;;;5025961;28;20851;-85
2022/10/16 04:41:00;;;;;;;0.20;0.20;;;11.50;99.90;;;;;;5028748;28;20211;-84
2022/10/16 04:43:25;;;;;;;0.20;0.20;;;11.50;99.90;;;;;;5020648;28;20294;-84
2022/10/16 04:45:51;;;;;;;0.20;0.20;;;11.50;99.90;;;;;;5021914;28;20284;-86
2022/10/16 04:48:18;;;;;;;0.20;0.20;;;11.60;99.90;;;;;;5029761;28;20184;-85
2022/10/16 04:50:43;;;;;;;0.20;0.20;;;11.60;99.90;;;;;;5028479;28;20249;-84
2022/10/16 04:53:09;;;;;;;0.20;0.20;;;11.60;99.90;;;;;;5029623;28;20930;-86
2022/10/16 04:55:34;;;;;;;0.20;0.20;;;11.60;99.90;;;;;;5028085;28;20271;-85
2022/10/16 04:58:00;;;;;;;0.20;0.20;;;11.60;99.90;;;;;;5020121;28;20731;-85
2022/10/16 05:00:26;;;;;;;0.20;0.20;;;11.60;99.90;;;;;;5022467;28;20615;-86
2022/10/16 05:02:51;;;;;;;0.20;0.20;;;11.60;99.90;;;;;;5023026;28;20294;-86
2022/10/16 05:05:19;;;;;;;0.20;0.20;;;11.60;99.90;;;;;;5028281;28;20250;-86
2022/10/16 05:07:45;;;;;;;0.20;0.20;;;11.70;99.90;;;;;;5023620;28;20211;-85
2022/10/16 05:10:11;;;;;;;0.20;0.20;;;11.60;99.90;;;;;;5029676;28;20442;-87
2022/10/16 05:12:36;;;;;;;0.20;0.20;;;11.70;99.90;;;;;;5025524;28;20807;-87
2022/10/16 05:15:03;;;;;;;0.20;0.20;;;11.70;99.90;;;;;;5022458;28;20219;-85
2022/10/16 05:17:28;;;;;;;0.20;0.20;;;11.70;99.90;;;;;;5026748;28;20339;-85
2022/10/16 05:19:54;;;;;;;0.20;0.20;;;11.70;99.90;;;;;;5004320;28;20442;-85
2022/10/16 05:22:19;;;;;;;0.20;0.20;;;11.70;99.90;;;;;;5019715;28;20228;-85
2022/10/16 05:24:45;;;;;;;0.10;0.10;;;11.70;99.90;;;;;;5025430;28;20261;-86
2022/10/16 05:27:18;;;;;;;0.20;0.20;;;11.70;99.90;;;;;;5021394;28;20200;-84
2022/10/16 05:29:47;;;;;;;0.20;0.20;;;11.70;99.90;;;;;;5025912;28;21087;-86
2022/10/16 05:32:14;;;;;;;0.20;0.20;;;11.80;99.90;;;;;;5019441;28;21095;-85
2022/10/16 05:34:39;;;;;;;0.10;0.10;;;11.80;99.90;;;;;;5001141;28;20953;-83
2022/10/16 05:37:05;;;;;;;0.20;0.20;;;11.80;99.90;;;;;;5006449;28;20446;-85
2022/10/16 05:39:31;;;;;;;0.20;0.20;;;11.80;99.90;;;;;;5030638;28;20191;-83
2022/10/16 05:41:56;;;;;;;0.20;0.20;;;11.70;99.90;;;;;;5029594;28;20489;-83
2022/10/16 05:44:22;;;;;;;0.13;0.13;;;11.70;99.90;;;;;;5012595;28;20190;-82
2022/10/16 05:46:47;;;;;;;0.20;0.20;;;11.70;99.90;;;;;;5009708;28;20239;-84
2022/10/16 05:49:13;;;;;;;0.20;0.20;;;11.70;99.90;;;;;;5024840;28;20258;-85
2022/10/16 05:51:38;;;;;;;0.20;0.20;;;11.80;99.90;;;;;;5005729;28;20196;-84
2022/10/16 05:54:04;;;;;;;0.20;0.20;;;11.70;99.90;;;;;;5001772;28;20196;-83
2022/10/16 05:56:29;;;;;;;0.20;0.20;;;11.70;99.90;;;;;;5027595;28;20209;-84
2022/10/16 05:58:55;;;;;;;0.20;0.20;;;11.70;99.90;;;;;;5023632;28;20237;-86
2022/10/16 06:01:23;;;;;;;0.20;0.20;;;11.70;99.90;;;;;;5025925;28;20227;-85
2022/10/16 06:03:52;;;;;;;0.20;0.20;;;11.80;99.90;;;;;;5024526;28;20183;-84
2022/10/16 06:06:25;;;;;;;0.20;0.20;;;11.80;99.90;;;;;;5007963;28;20455;-86
2022/10/16 06:08:51;;;;;;;0.20;0.20;;;11.80;99.90;;;;;;5033068;28;20441;-84
2022/10/16 06:11:19;;;;;;;0.20;0.20;;;11.80;99.90;;;;;;5030276;28;20811;-87
2022/10/16 06:13:48;;;;;;;0.20;0.20;;;11.90;99.90;;;;;;5017446;28;20525;-85
2022/10/16 06:16:14;;;;;;;0.20;0.20;;;11.90;99.90;;;;;;5022767;28;20456;-86
2022/10/16 06:18:39;;;;;;;0.13;0.13;;;11.80;99.90;;;;;;5025863;28;21137;-84
2022/10/16 06:21:16;;;;;;;0.20;0.20;;;11.80;99.90;;;;;;5024930;28;20203;-84
2022/10/16 06:23:42;;;;;;;0.20;0.20;;;11.80;99.90;;;;;;5020988;28;20237;-85
2022/10/16 06:26:10;;;;;;;0.20;0.20;;;11.80;99.90;;;;;;5022410;28;21030;-84
2022/10/16 06:28:35;;;;;;;0.20;0.20;;;11.80;99.90;;;;;;5006763;28;20203;-84
2022/10/16 06:31:02;;;;;;;0.20;0.20;;;11.90;99.90;;;;;;5021716;28;20438;-86
2022/10/16 06:33:28;;;;;;;0.20;0.20;;;11.90;99.90;;;;;;5020901;28;20268;-87
2022/10/16 06:35:53;;;;;;;0.17;0.17;;;11.90;99.90;;;;;;5024308;28;20473;-88
2022/10/16 06:38:19;;;;;;;0.20;0.20;;;12.00;99.90;;;;;;5028008;28;20182;-87
2022/10/16 06:40:44;;;;;;;0.20;0.20;;;12.00;99.90;;;;;;5024041;28;20210;-85
2022/10/16 06:43:10;;;;;;;0.20;0.20;;;12.10;99.90;;;;;;5022376;28;20210;-86
2022/10/16 06:45:35;;;;;;;0.20;0.20;;;12.10;99.90;;;;;;5028539;28;20227;-84
2022/10/16 06:48:00;;;;;;;0.20;0.20;;;12.10;99.90;;;;;;5002843;28;20184;-85
2022/10/16 06:50:26;;;;;;;0.20;0.20;;;12.20;99.90;;;;;;5023574;28;20237;-85
2022/10/16 06:52:51;;;;;;;0.20;0.20;;;12.20;99.90;;;;;;5026243;28;20192;-85
2022/10/16 06:55:17;;;;;;;0.10;0.10;;;12.30;99.90;;;;;;5025787;28;20179;-85
2022/10/16 06:57:43;;;;;;;0.10;0.10;;;12.30;99.90;;;;;;5029502;28;20202;-84
2022/10/16 07:00:09;;;;;;;0.13;0.13;;;12.30;99.90;;;;;;5026763;28;20179;-85
2022/10/16 07:02:35;;;;;;;0.20;0.20;;;12.30;99.90;;;;;;5027102;28;20493;-84
2022/10/16 07:05:01;;;;;;;0.20;0.20;;;12.40;99.90;;;;;;5021789;28;20183;-84
2022/10/16 07:07:26;;;;;;;0.20;0.20;;;12.50;99.90;;;;;;5017217;28;20194;-84
2022/10/16 07:09:52;;;;;;;0.20;0.20;;;12.50;99.90;;;;;;5030285;28;20171;-84
2022/10/16 07:12:17;;;;;;;0.10;0.10;;;12.50;99.90;;;;;;5029638;28;20191;-82
2022/10/16 07:14:43;;;;;;;0.10;0.10;;;12.60;99.90;;;;;;5028022;28;20195;-82
2022/10/16 07:17:08;;;;;;;0.10;0.10;;;12.50;99.90;;;;;;5025952;28;20188;-82
2022/10/16 07:19:34;;;;;;;0.10;0.10;;;12.50;99.90;;;;;;5010878;28;20187;-83
2022/10/16 07:22:00;;;;;;;0.10;0.10;;;12.50;99.90;;;;;;5025987;28;20242;-84
2022/10/16 07:24:26;;;;;;;0.10;0.10;;;12.60;99.90;;;;;;5029763;28;20206;-85
2022/10/16 07:26:51;;;;;;;0.20;0.20;;;12.70;99.90;;;;;;5027028;28;20523;-83
2022/10/16 07:29:20;;;;;;;0.20;0.20;;;12.70;99.90;;;;;;5029027;28;20655;-84
2022/10/16 07:31:46;;;;;;;0.20;0.20;;;12.70;99.90;;;;;;5006645;28;20600;-85
2022/10/16 07:34:13;;;;;;;0.20;0.20;;;12.80;99.90;;;;;;5003736;28;20438;-85
2022/10/16 07:36:39;;;;;;;0.10;0.10;;;12.80;99.90;;;;;;5010049;28;20470;-84
2022/10/16 07:39:04;;;;;;;0.13;0.13;;;12.90;99.90;;;;;;5010650;28;20465;-87
2022/10/16 07:41:32;;;;;;;0.10;0.10;;;12.80;99.90;;;;;;5009673;28;20313;-86
2022/10/16 07:43:59;;;;;;;0.10;0.10;;;12.80;99.90;;;;;;5019693;28;20574;-85
2022/10/16 07:46:26;;;;;;;0.10;0.10;;;12.70;99.90;;;;;;5003167;28;20849;-84
2022/10/16 07:48:52;;;;;;;0.10;0.10;;;13.00;99.90;;;;;;4998455;28;20434;-85
2022/10/16 07:51:23;;;;;;;0.10;0.10;;;13.10;99.90;;;;;;5010386;28;20454;-85
2022/10/16 07:53:50;;;;;;;0.13;0.13;;;13.20;99.90;;;;;;5017488;28;20976;-83
2022/10/16 07:56:18;;;;;;;0.10;0.10;;;13.40;99.90;;;;;;5021148;28;20450;-87
2022/10/16 07:58:44;;;;;;;0.10;0.10;;;13.60;99.90;;;;;;5028838;28;20456;-85
2022/10/16 08:01:13;;;;;;;0.10;0.10;;;13.80;99.90;;;;;;5031889;28;21062;-85
2022/10/16 08:03:41;;;;;;;0.10;0.10;;;13.70;99.90;;;;;;5014321;28;20461;-88
2022/10/16 08:06:06;;;;;;;0.10;0.10;;;13.80;99.90;;;;;;5031921;28;20552;-86
2022/10/16 08:08:32;;;;;;;0.10;0.10;;;13.80;99.90;;;;;;5024138;28;20447;-86
2022/10/16 08:10:57;;;;;;;0.10;0.10;;;13.90;99.90;;;;;;5023489;28;20216;-86
2022/10/16 08:13:23;;;;;;;0.10;0.10;;;14.10;99.90;;;;;;5013156;28;20621;-85
2022/10/16 08:15:49;;;;;;;0.10;0.10;;;14.20;99.90;;;;;;4997129;28;20558;-89
2022/10/16 08:18:15;;;;;;;0.10;0.10;;;14.30;99.90;;;;;;5015582;28;20190;-90
2022/10/16 08:20:42;;;;;;;0.10;0.10;;;14.40;99.90;;;;;;5014384;28;20194;-90
2022/10/16 08:23:10;;;;;;;0.10;0.10;;;14.50;99.90;;;;;;5026174;28;20453;-89
2022/10/16 08:25:36;;;;;;;0.10;0.10;;;14.60;99.90;;;;;;5009694;28;20447;-89
2022/10/16 08:28:07;;;;;;;0.10;0.10;;;14.80;99.90;;;;;;5016698;28;21103;-89
2022/10/16 08:30:33;;;;;;;0.10;0.10;;;14.80;99.90;;;;;;5031672;28;20189;-89
2022/10/16 08:32:59;;;;;;;0.10;0.10;;;14.80;99.90;;;;;;5013350;28;20818;-87
2022/10/16 08:35:24;;;;;;;0.10;0.10;;;14.90;99.90;;;;;;5012349;28;20437;-87
2022/10/16 08:37:50;;;;;;;0.10;0.10;;;14.90;99.90;;;;;;5011921;28;20206;-89
2022/10/16 08:40:23;;;;;;;0.10;0.10;;;15.00;99.90;;;;;;5023580;28;20191;-90
2022/10/16 08:43:00;;;;;;;0.10;0.10;;;15.30;99.90;;;;;;5011050;28;20220;-88
2022/10/16 08:45:57;;;;;;;0.10;0.10;;;15.40;99.90;;;;;;5027721;28;20916;-90
2022/10/16 08:48:46;;;;;;;0.10;0.10;;;15.50;99.90;;;;;;5032926;28;20498;-87
2022/10/16 08:51:20;;;;;;;0.10;0.10;;;15.40;99.90;;;;;;5020801;28;20537;-88
2022/10/16 08:54:14;;;;;;;0.10;0.10;;;15.40;99.90;;;;;;5002756;28;20790;-88
2022/10/16 08:56:39;;;;;;;0.10;0.10;;;15.60;99.90;;;;;;5023000;28;20435;-92
2022/10/16 08:59:11;;;;;;;0.10;0.10;;;15.60;99.90;;;;;;5010084;28;20465;-90
2022/10/16 09:01:49;;;;;;;0.10;0.10;;;15.90;99.90;;;;;;5006348;28;20252;-90
2022/10/16 09:04:21;;;;;;;0.10;0.10;;;15.90;99.90;;;;;;5016876;28;20524;-87
2022/10/16 09:06:50;;;;;;;0.10;0.10;;;15.80;99.90;;;;;;5019790;28;20457;-86
2022/10/16 09:09:32;;;;;;;0.10;0.10;;;16.00;99.90;;;;;;5038788;28;21033;-90
2022/10/16 09:12:10;;;;;;;0.10;0.10;;;16.20;99.90;;;;;;5024200;28;20449;-87
2022/10/16 09:14:54;;;;;;;0.10;0.10;;;16.10;99.90;;;;;;5031319;28;20515;-89
2022/10/16 09:17:35;;;;;;;0.10;0.10;;;16.30;99.90;;;;;;5026548;28;20442;-90
2022/10/16 09:20:26;;;;;;;0.10;0.10;;;16.50;99.90;;;;;;5030454;28;20442;-89
2022/10/16 09:23:01;;;;;;;0.10;0.10;;;16.60;99.90;;;;;;5014088;28;20532;-91
2022/10/16 09:25:27;;;;;;;0.10;0.10;;;16.70;99.90;;;;;;5027973;28;20449;-88
2022/10/16 09:27:54;;;;;;;0.10;0.10;;;16.70;99.90;;;;;;5010316;28;21062;-88
2022/10/16 09:30:21;;;;;;;0.10;0.10;;;17.00;99.90;;;;;;5007502;28;20446;-89
2022/10/16 09:32:51;;;;;;;0.10;0.10;;;17.00;99.90;;;;;;5008981;28;20458;-89
2022/10/16 09:35:22;;;;;;;0.10;0.10;;;17.10;99.90;;;;;;5011671;28;20438;-88
2022/10/16 09:37:54;;;;;;;0.10;0.10;;;17.30;99.90;;;;;;5011423;28;20443;-89
2022/10/16 09:40:31;;;;;;;0.10;0.10;;;17.50;99.90;;;;;;5023330;28;20446;-92
2022/10/16 09:43:12;;;;;;;0.10;0.10;;;17.80;99.90;;;;;;5013106;28;20464;-91
2022/10/16 09:45:38;;;;;;;0.10;0.10;;;18.10;99.90;;;;;;5030016;28;20485;-92
2022/10/16 09:48:19;;;;;;;0.10;0.10;;;17.90;99.90;;;;;;5012098;28;20995;-90
2022/10/16 09:50:59;;;;;;;0.10;0.10;;;18.20;99.90;;;;;;5027878;28;20649;-91
2022/10/16 09:53:37;;;;;;;0.10;0.10;;;18.40;99.90;;;;;;5025439;28;20444;-94
2022/10/16 09:56:05;;;;;;;0.10;0.10;;;17.80;99.90;;;;;;5029257;28;20434;-93
2022/10/16 09:58:32;;;;;;;0.10;0.10;;;17.20;99.90;;;;;;5031777;28;20442;-90
2022/10/16 10:00:59;;;;;;;0.10;0.10;;;17.00;99.90;;;;;;5029811;28;20473;-89
2022/10/16 10:03:37;;;;;;;0.10;0.10;;;17.00;99.90;;;;;;5021265;28;20451;-89
2022/10/16 10:06:31;;;;;;;0.10;0.10;;;17.00;99.90;;;;;;5024235;28;20444;-88
2022/10/16 10:09:18;;;;;;;0.10;0.10;;;16.50;99.90;;;;;;5028013;28;20773;-89
2022/10/16 10:11:55;;;;;;;0.10;0.10;;;16.80;99.90;;;;;;5027152;28;20442;-90
2022/10/16 10:14:36;;;;;;;0.10;0.10;;;17.20;99.90;;;;;;5027623;28;20979;-91
2022/10/16 10:17:23;;;;;;;0.10;0.10;;;17.10;99.90;;;;;;5027804;28;20493;-90
2022/10/16 10:19:51;;;;;;;0.10;0.10;;;17.40;99.90;;;;;;5028677;28;20430;-89
2022/10/16 10:22:32;;;;;;;0.10;0.10;;;17.00;99.90;;;;;;5027609;28;20482;-88
2022/10/16 10:25:13;;;;;;;0.10;0.10;;;16.70;99.90;;;;;;5029330;28;20441;-85
2022/10/16 10:27:58;;;;;;;0.10;0.10;;;16.60;99.90;;;;;;5023868;28;20446;-86
2022/10/16 10:30:38;;;;;;;0.10;0.10;;;16.60;99.90;;;;;;5026530;28;20457;-87
2022/10/16 10:33:03;;;;;;;0.10;0.10;;;17.70;99.90;;;;;;5014015;28;20430;-87
2022/10/16 10:35:40;;;;;;;0.10;0.10;;;18.30;99.90;;;;;;5022229;28;20496;-90
2022/10/16 10:38:27;;;;;;;0.10;0.10;;;18.00;99.90;;;;;;5027017;28;20210;-89
2022/10/16 10:41:24;;;;;;;0.10;0.10;;;17.30;99.90;;;;;;5022394;28;20441;-88
2022/10/16 10:44:01;;;;;;;0.10;0.10;;;17.00;99.90;;;;;;5018685;28;20442;-90
2022/10/16 10:46:38;;;;;;;0.10;0.10;;;18.30;99.90;;;;;;5022411;28;20480;-87
2022/10/16 10:49:16;;;;;;;0.10;0.10;;;18.30;99.90;;;;;;4994434;28;20474;-89
2022/10/16 10:52:07;;;;;;;0.10;0.10;;;18.20;99.90;;;;;;5021394;28;21157;-92
2022/10/16 10:54:46;;;;;;;0.10;0.10;;;18.20;99.90;;;;;;5021205;28;20963;-90
2022/10/16 10:57:33;;;;;;;0.10;0.10;;;19.30;99.90;;;;;;5013911;28;20442;-89
2022/10/16 11:00:17;;;;;;;0.10;0.10;;;18.80;99.90;;;;;;5024436;28;20450;-88
2022/10/16 11:03:12;;;;;;;0.10;0.10;;;19.60;99.90;;;;;;5028413;28;20485;-89
2022/10/16 11:05:50;;;;;;;0.10;0.10;;;20.30;99.90;;;;;;5027502;28;20453;-90
2022/10/16 11:08:21;;;;;;;0.10;0.10;;;20.90;99.90;;;;;;5026919;28;20457;-91
2022/10/16 11:10:54;;;;;;;0.10;0.00;;;20.80;99.90;;;;;;5022404;28;20442;-90
2022/10/16 11:13:27;;;;;;;0.10;0.10;;;19.50;99.90;;;;;;5017072;28;20454;-88
2022/10/16 11:15:56;;;;;;;0.10;0.10;;;19.20;99.90;;;;;;5006226;28;20442;-88
2022/10/16 11:19:04;;;;;;;0.10;0.10;;;20.40;99.90;;;;;;5022281;28;20465;-88
2022/10/16 11:21:37;;;;;;;0.10;0.00;;;19.90;99.90;;;;;;5020904;28;20517;-90
2022/10/16 11:24:22;;;;;;;0.10;0.10;;;19.20;99.90;;;;;;5021137;28;20460;-86
2022/10/16 11:26:52;;;;;;;0.10;0.10;;;19.00;99.90;;;;;;5027538;28;20454;-90
2022/10/16 11:29:29;;;;;;;0.10;0.10;;;19.10;99.90;;;;;;5004079;28;20438;-95
2022/10/16 11:32:00;;;;;;;0.10;0.10;;;18.50;99.90;;;;;;5027437;28;20477;-87
2022/10/16 11:34:32;;;;;;;0.10;0.10;;;18.40;99.90;;;;;;5012485;28;20477;-88
2022/10/16 11:37:18;;;;;;;0.10;0.10;;;18.20;99.90;;;;;;5030110;28;21060;-87
2022/10/16 11:39:45;;;;;;;0.10;0.10;;;19.40;99.90;;;;;;5010490;28;20441;-87
2022/10/16 11:42:29;;;;;;;0.10;0.10;;;19.70;99.90;;;;;;5011692;28;20485;-89
2022/10/16 11:45:08;;;;;;;0.10;0.10;;;20.60;99.90;;;;;;5015433;28;20437;-89
2022/10/16 11:47:52;;;;;;;0.10;0.00;;;20.60;99.90;;;;;;5026191;28;20512;-88
2022/10/16 11:50:22;;;;;;;0.10;0.00;;;20.40;99.90;;;;;;5003714;28;20442;-89
2022/10/16 11:53:15;;;;;;;0.10;0.00;;;20.20;99.90;;;;;;5025718;28;20446;-89
2022/10/16 11:55:43;;;;;;;0.10;0.10;;;19.20;99.90;;;;;;5018827;28;20446;-88
2022/10/16 11:58:46;;;;;;;0.10;0.10;;;18.50;99.90;;;;;;5010435;28;20438;-87
2022/10/16 12:01:35;;;;;;;0.10;0.10;;;18.10;99.90;;;;;;5022690;28;20513;-89
2022/10/16 12:04:24;;;;;;;0.10;0.10;;;18.20;99.90;;;;;;5026780;28;20462;-88
2022/10/16 12:06:57;;;;;;;0.10;0.10;;;18.10;99.90;;;;;;5027253;28;20442;-89
2022/10/16 12:09:27;;;;;;;0.10;0.10;;;18.10;99.90;;;;;;5026580;28;21024;-88
2022/10/16 12:11:52;;;;;;;0.10;0.10;;;18.70;99.90;;;;;;5008092;28;20924;-86
2022/10/16 12:14:26;;;;;;;0.10;0.10;;;19.40;99.90;;;;;;5025065;28;20584;-86
2022/10/16 12:16:59;;;;;;;0.10;0.07;;;19.20;99.90;;;;;;5010566;28;20180;-85
2022/10/16 12:19:27;;;;;;;0.10;0.10;;;19.40;99.90;;;;;;5020843;28;20452;-87
2022/10/16 12:21:55;;;;;;;0.10;0.00;;;19.10;99.90;;;;;;5028392;28;20589;-89
2022/10/16 12:24:30;;;;;;;0.10;0.00;;;19.30;99.90;;;;;;5023447;28;20497;-87
2022/10/16 12:26:55;;;;;;;0.10;0.00;;;20.50;99.90;;;;;;5018346;28;20450;-90
2022/10/16 12:29:34;;;;;;;0.10;0.00;;;21.40;99.90;;;;;;5024943;28;20805;-90
2022/10/16 12:32:00;;;;;;;0.10;0.00;;;21.80;99.90;;;;;;5021452;28;20244;-89
2022/10/16 12:34:42;;;;;;;0.10;0.00;;;21.10;99.90;;;;;;5020421;28;20442;-88
2022/10/16 12:37:35;;;;;;;0.10;0.00;;;19.60;99.90;;;;;;5020751;28;20456;-85
2022/10/16 12:40:25;;;;;;;0.10;0.10;;;18.50;99.90;;;;;;5017104;28;21291;-88
2022/10/16 12:42:51;;;;;;;0.10;0.10;;;17.90;99.90;;;;;;5011087;28;20486;-86
2022/10/16 12:45:30;;;;;;;0.10;0.10;;;18.40;99.90;;;;;;5017532;28;20484;-86
2022/10/16 12:47:57;;;;;;;0.10;0.10;;;19.40;99.90;;;;;;5012279;28;20699;-86
2022/10/16 12:50:33;;;;;;;0.10;0.00;;;19.80;99.90;;;;;;4990096;28;20586;-86
2022/10/16 12:53:00;;;;;;;0.10;0.00;;;21.00;99.90;;;;;;5002682;28;20477;-87
2022/10/16 12:55:29;;;;;;;0.10;0.00;;;22.00;99.90;;;;;;5016136;28;21134;-88
2022/10/16 12:58:14;;;;;;;0.00;0.00;;;22.10;99.90;;;;;;5006182;28;20879;-86
2022/10/16 13:00:45;;;;;;;0.10;0.00;;;21.80;99.90;;;;;;5001373;28;20451;-85
2022/10/16 13:03:29;;;;;;;0.00;0.00;;;20.40;99.90;;;;;;5016100;28;20443;-85
2022/10/16 13:06:04;;;;;;;0.00;0.00;;;21.00;99.90;;;;;;4990341;28;20479;-87